Time;durP1;ratioP1;P1;durP2;ratioP2;P2;SDS_P1;SDS_P2;PMS_P1;PMS_P2;Temp;Humidity;BMP_temperature;BMP_pressure;BME280_temperature;BME280_humidity;BME280_pressure;Samples;Min_cycle;Max_cycle;Signal;HPM_P1;HPM_P2
2023/05/22 00:01:50;;;;;;;9.50;4.20;;;10.50;93.70;;;;;;6153163;23;20016;-94
2023/05/22 00:04:20;;;;;;;13.20;4.20;;;10.50;93.90;;;;;;6153748;23;20010;-94
2023/05/22 00:06:45;;;;;;;11.75;4.35;;;10.40;94.40;;;;;;6153289;23;20010;-94
2023/05/22 00:09:11;;;;;;;6.25;3.60;;;10.30;94.90;;;;;;6153578;23;20010;-94
2023/05/22 00:11:38;;;;;;;7.93;3.60;;;10.30;95.40;;;;;;6153034;23;20014;-94
2023/05/22 00:14:05;;;;;;;6.43;3.70;;;10.20;95.80;;;;;;6153414;23;20036;-93
2023/05/22 00:16:30;;;;;;;6.55;3.83;;;10.20;96.30;;;;;;6130128;23;20009;-93
2023/05/22 00:18:56;;;;;;;6.88;3.47;;;10.10;96.60;;;;;;6153124;23;20442;-93
2023/05/22 00:21:23;;;;;;;6.15;3.50;;;10.10;97.00;;;;;;6153233;23;20010;-94
2023/05/22 00:23:49;;;;;;;9.40;4.43;;;10.10;97.40;;;;;;6152881;23;20006;-93
2023/05/22 00:26:15;;;;;;;8.70;3.92;;;10.00;97.80;;;;;;6153193;23;20010;-93
2023/05/22 00:28:41;;;;;;;6.70;3.75;;;10.00;98.10;;;;;;6152767;23;20006;-92
2023/05/22 00:31:07;;;;;;;7.63;3.90;;;9.90;98.20;;;;;;6152590;23;20006;-93
2023/05/22 00:33:33;;;;;;;7.75;4.00;;;9.80;98.70;;;;;;6152621;23;20341;-94
2023/05/22 00:35:59;;;;;;;7.47;4.32;;;9.80;99.20;;;;;;6152222;23;20033;-94
2023/05/22 00:38:33;;;;;;;9.70;3.97;;;9.70;99.60;;;;;;6152037;23;20037;-93
2023/05/22 00:41:00;;;;;;;6.22;3.42;;;9.70;99.90;;;;;;6152151;23;20002;-93
2023/05/22 00:43:26;;;;;;;4.85;3.33;;;9.70;99.90;;;;;;6152417;23;20010;-93
2023/05/22 00:45:53;;;;;;;6.65;3.53;;;9.60;99.90;;;;;;6152311;23;20036;-94
2023/05/22 00:48:23;;;;;;;6.40;3.40;;;9.60;99.90;;;;;;6151610;23;20459;-93
2023/05/22 00:50:49;;;;;;;8.00;3.42;;;9.60;99.90;;;;;;6152434;23;20041;-93
2023/05/22 00:53:17;;;;;;;5.57;3.13;;;9.50;99.90;;;;;;6153872;23;20361;-93
2023/05/22 00:55:43;;;;;;;7.10;3.13;;;9.50;99.90;;;;;;6153434;23;20101;-94
2023/05/22 00:58:13;;;;;;;6.93;3.40;;;9.40;99.90;;;;;;6152661;23;20010;-94
2023/05/22 01:00:41;;;;;;;5.65;2.85;;;9.40;99.90;;;;;;6153597;23;19998;-94
2023/05/22 01:03:08;;;;;;;7.13;4.25;;;9.40;99.90;;;;;;6154542;23;20001;-94
2023/05/22 01:05:35;;;;;;;8.85;3.55;;;9.30;99.90;;;;;;6167456;23;20016;-92
2023/05/22 01:08:01;;;;;;;8.60;3.70;;;9.30;99.90;;;;;;6167456;23;20066;-94
2023/05/22 01:10:29;;;;;;;5.75;4.07;;;9.20;99.90;;;;;;6161748;23;20006;-94
2023/05/22 01:13:18;;;;;;;6.63;3.30;;;9.10;99.90;;;;;;6154198;23;20013;-93
2023/05/22 01:15:59;;;;;;;6.10;3.67;;;9.10;99.90;;;;;;6129242;23;20006;-95
2023/05/22 01:18:29;;;;;;;5.75;3.60;;;9.10;99.90;;;;;;6128936;23;20058;-94
2023/05/22 01:21:08;;;;;;;5.83;3.33;;;9.10;99.90;;;;;;6128815;23;20006;-94
2023/05/22 01:23:44;;;;;;;7.28;3.50;;;9.00;99.90;;;;;;6128526;23;20282;-92
2023/05/22 01:26:09;;;;;;;5.93;3.45;;;9.00;99.90;;;;;;6152840;23;20008;-93
2023/05/22 01:29:00;;;;;;;5.88;3.38;;;9.00;99.90;;;;;;6128356;23;20363;-93
2023/05/22 01:31:30;;;;;;;8.98;3.33;;;8.90;99.90;;;;;;6127883;23;20082;-93
2023/05/22 01:33:59;;;;;;;5.00;3.40;;;8.90;99.90;;;;;;6152521;23;20033;-93
2023/05/22 01:36:29;;;;;;;5.00;3.33;;;8.80;99.90;;;;;;6152955;23;20433;-93
2023/05/22 01:38:57;;;;;;;7.05;3.35;;;8.80;99.90;;;;;;6152192;23;20009;-94
2023/05/22 01:41:23;;;;;;;7.00;3.65;;;8.70;99.90;;;;;;6152975;23;20089;-94
2023/05/22 01:43:49;;;;;;;7.68;3.35;;;8.70;99.90;;;;;;6129491;23;20010;-94
2023/05/22 01:46:15;;;;;;;6.28;3.78;;;8.60;99.90;;;;;;6152321;23;20028;-93
2023/05/22 01:48:41;;;;;;;6.03;3.42;;;8.60;99.90;;;;;;6152477;23;20013;-93
2023/05/22 01:51:21;;;;;;;5.90;3.30;;;8.60;99.90;;;;;;6129247;23;20047;-92
2023/05/22 01:54:00;;;;;;;6.00;3.20;;;8.60;99.90;;;;;;6128027;23;20013;-94
2023/05/22 01:56:35;;;;;;;8.75;3.28;;;8.60;99.90;;;;;;6152445;23;20006;-94
2023/05/22 01:59:30;;;;;;;8.27;3.58;;;8.50;99.90;;;;;;6152079;23;20014;-94
2023/05/22 02:02:01;;;;;;;6.22;3.15;;;8.50;99.90;;;;;;6102665;23;20002;-94
2023/05/22 02:04:28;;;;;;;6.82;3.70;;;8.40;99.90;;;;;;6152282;23;20342;-92
2023/05/22 02:06:58;;;;;;;8.80;3.65;;;8.40;99.90;;;;;;6152508;23;20006;-93
2023/05/22 02:09:32;;;;;;;5.85;3.55;;;8.40;99.90;;;;;;6152029;23;20040;-93
2023/05/22 02:12:01;;;;;;;10.35;3.88;;;8.30;99.90;;;;;;6151926;23;20025;-94
2023/05/22 02:14:28;;;;;;;10.88;5.05;;;8.30;99.90;;;;;;6151546;23;20006;-94
2023/05/22 02:16:55;;;;;;;6.30;3.55;;;8.30;99.90;;;;;;6151412;23;20415;-93
2023/05/22 02:19:21;;;;;;;8.40;4.03;;;8.20;99.90;;;;;;6151755;23;20069;-93
2023/05/22 02:21:46;;;;;;;6.57;3.38;;;8.20;99.90;;;;;;6151122;23;20006;-93
2023/05/22 02:24:12;;;;;;;6.47;3.83;;;8.20;99.90;;;;;;6151455;23;20010;-93
2023/05/22 02:26:38;;;;;;;6.75;3.72;;;8.20;99.90;;;;;;6151530;23;20453;-93
2023/05/22 02:29:04;;;;;;;9.25;3.85;;;8.20;99.90;;;;;;6151998;23;20021;-95
2023/05/22 02:31:30;;;;;;;8.68;3.60;;;8.20;99.90;;;;;;6171048;23;20009;-92
2023/05/22 02:33:56;;;;;;;8.30;3.72;;;8.20;99.90;;;;;;6155696;23;20005;-93
2023/05/22 02:36:21;;;;;;;7.32;2.95;;;8.30;99.90;;;;;;6153075;23;20002;-93
2023/05/22 02:38:47;;;;;;;5.65;3.60;;;8.30;99.90;;;;;;6153034;23;20017;-94
2023/05/22 02:41:13;;;;;;;4.25;2.67;;;8.30;99.90;;;;;;6129015;23;20010;-93
2023/05/22 02:43:39;;;;;;;8.48;3.50;;;8.30;99.90;;;;;;6152588;23;20009;-93
2023/05/22 02:46:04;;;;;;;5.80;2.67;;;8.30;99.90;;;;;;6128042;23;20456;-92
2023/05/22 02:48:30;;;;;;;6.70;2.97;;;8.30;99.90;;;;;;6152376;23;20010;-94
2023/05/22 02:50:56;;;;;;;5.72;3.25;;;8.30;99.90;;;;;;6152368;23;20002;-93
2023/05/22 02:53:21;;;;;;;5.35;2.80;;;8.30;99.90;;;;;;6127434;23;20489;-93
2023/05/22 02:55:47;;;;;;;6.85;3.10;;;8.30;99.90;;;;;;6152800;23;20010;-93
2023/05/22 02:58:13;;;;;;;8.00;3.28;;;8.20;99.90;;;;;;6153798;23;20064;-94
2023/05/22 03:00:39;;;;;;;4.70;3.08;;;8.30;99.90;;;;;;6155993;23;20025;-95
2023/05/22 03:03:06;;;;;;;7.20;3.10;;;8.20;99.90;;;;;;6155294;23;20009;-94
2023/05/22 03:05:34;;;;;;;5.88;3.13;;;8.20;99.90;;;;;;6136721;23;20080;-94
2023/05/22 03:08:00;;;;;;;5.68;3.00;;;8.30;99.90;;;;;;6159238;23;19998;-94
2023/05/22 03:10:26;;;;;;;6.88;3.38;;;8.20;99.90;;;;;;6155674;23;20092;-95
2023/05/22 03:12:52;;;;;;;6.35;2.70;;;8.20;99.90;;;;;;6152533;23;20402;-95
2023/05/22 03:15:18;;;;;;;6.78;3.00;;;8.20;99.90;;;;;;6153613;23;20004;-94
2023/05/22 03:17:43;;;;;;;6.95;3.25;;;8.30;99.90;;;;;;6153356;23;20006;-94
2023/05/22 03:20:10;;;;;;;5.43;2.83;;;8.20;99.90;;;;;;6154522;23;20064;-94
2023/05/22 03:22:35;;;;;;;4.82;2.70;;;8.30;99.90;;;;;;6157260;23;20033;-94
2023/05/22 03:25:01;;;;;;;6.55;2.58;;;8.30;99.90;;;;;;6159027;23;20089;-96
2023/05/22 03:27:27;;;;;;;5.75;3.00;;;8.30;99.90;;;;;;6175761;23;20097;-91
2023/05/22 03:29:52;;;;;;;5.05;2.92;;;8.30;99.90;;;;;;6177286;23;20006;-89
2023/05/22 03:32:18;;;;;;;6.30;2.65;;;8.40;99.90;;;;;;6176751;23;20018;-89
2023/05/22 03:34:44;;;;;;;5.63;2.78;;;8.40;99.90;;;;;;6177390;23;20018;-92
2023/05/22 03:37:10;;;;;;;5.93;2.95;;;8.40;99.90;;;;;;6176648;23;20014;-89
2023/05/22 03:39:35;;;;;;;9.75;2.72;;;8.40;99.90;;;;;;6177971;23;20017;-91
2023/05/22 03:42:01;;;;;;;5.03;2.70;;;8.40;99.90;;;;;;6177832;23;20014;-92
2023/05/22 03:44:27;;;;;;;6.90;2.90;;;8.40;99.90;;;;;;6168379;23;20058;-95
2023/05/22 03:46:52;;;;;;;7.68;2.90;;;8.40;99.90;;;;;;6168892;23;20010;-93
2023/05/22 03:49:18;;;;;;;5.45;2.70;;;8.40;99.90;;;;;;6143424;23;20024;-95
2023/05/22 03:51:44;;;;;;;5.65;2.88;;;8.40;99.90;;;;;;6173788;23;20018;-90
2023/05/22 03:54:10;;;;;;;8.15;3.22;;;8.40;99.90;;;;;;6177630;23;19990;-89
2023/05/22 03:56:36;;;;;;;5.80;2.40;;;8.40;99.90;;;;;;6177052;23;20006;-90
2023/05/22 03:59:01;;;;;;;4.70;2.63;;;8.40;99.90;;;;;;6177213;23;20006;-91
2023/05/22 04:01:28;;;;;;;4.07;2.50;;;8.40;99.90;;;;;;6160599;23;20033;-93
2023/05/22 04:03:54;;;;;;;4.38;2.75;;;8.40;99.90;;;;;;6156934;23;20341;-94
2023/05/22 04:06:20;;;;;;;6.22;2.80;;;8.40;99.90;;;;;;6155695;23;20022;-93
2023/05/22 04:08:47;;;;;;;4.47;3.00;;;8.40;99.90;;;;;;6155168;23;20006;-94
2023/05/22 04:11:14;;;;;;;5.85;2.70;;;8.40;99.90;;;;;;6155615;23;20347;-93
2023/05/22 04:13:41;;;;;;;7.10;2.97;;;8.40;99.90;;;;;;6154619;23;20010;-94
2023/05/22 04:16:06;;;;;;;5.50;2.85;;;8.40;99.90;;;;;;6154540;23;20006;-93
2023/05/22 04:18:32;;;;;;;6.18;2.38;;;8.40;99.90;;;;;;6156412;23;20089;-93
2023/05/22 04:20:58;;;;;;;5.45;2.83;;;8.40;99.90;;;;;;6155878;23;20002;-93
2023/05/22 04:23:24;;;;;;;4.15;2.55;;;8.40;99.90;;;;;;6154050;23;20002;-93
2023/05/22 04:25:50;;;;;;;3.63;2.60;;;8.50;99.90;;;;;;6154050;23;20006;-95
2023/05/22 04:28:21;;;;;;;4.93;3.03;;;8.50;99.90;;;;;;6154809;23;20066;-94
2023/05/22 04:30:47;;;;;;;;;;;8.50;99.90;;;;;;6154235;23;20085;-94
2023/05/22 04:33:13;;;;;;;5.47;2.83;;;8.50;99.90;;;;;;6152891;23;19958;-94
2023/05/22 04:35:41;;;;;;;6.10;2.65;;;8.50;99.90;;;;;;6152319;23;20074;-93
2023/05/22 04:38:07;;;;;;;4.80;2.42;;;8.50;99.90;;;;;;6153183;23;20113;-94
2023/05/22 04:40:33;;;;;;;7.28;2.83;;;8.50;99.90;;;;;;6152785;23;19998;-95
2023/05/22 04:42:59;;;;;;;4.95;2.90;;;8.50;99.90;;;;;;6154782;23;20081;-95
2023/05/22 04:45:28;;;;;;;5.57;2.95;;;8.50;99.90;;;;;;6154860;23;20013;-94
2023/05/22 04:47:54;;;;;;;7.60;3.00;;;8.50;99.90;;;;;;6155842;23;19998;-94
2023/05/22 04:50:20;;;;;;;7.00;3.17;;;8.50;99.90;;;;;;6131468;23;20006;-94
2023/05/22 04:52:46;;;;;;;4.65;2.58;;;8.50;99.90;;;;;;6156604;23;20032;-94
2023/05/22 04:55:13;;;;;;;5.70;2.63;;;8.50;99.90;;;;;;6158409;23;20045;-93
2023/05/22 04:57:39;;;;;;;5.85;3.00;;;8.50;99.90;;;;;;6157165;23;20029;-94
2023/05/22 05:00:06;;;;;;;4.85;2.88;;;8.40;99.90;;;;;;6156390;23;20002;-94
2023/05/22 05:02:32;;;;;;;4.43;2.75;;;8.40;99.90;;;;;;6157988;23;20240;-94
2023/05/22 05:04:58;;;;;;;9.00;3.40;;;8.50;99.90;;;;;;6156343;23;20002;-95
2023/05/22 05:07:23;;;;;;;4.88;2.38;;;8.50;99.90;;;;;;6157155;23;20014;-94
2023/05/22 05:09:50;;;;;;;6.88;2.88;;;8.60;99.90;;;;;;6158485;23;20013;-93
2023/05/22 05:12:15;;;;;;;6.10;2.78;;;8.60;99.90;;;;;;6157318;23;20018;-94
2023/05/22 05:14:42;;;;;;;6.47;2.30;;;8.60;99.90;;;;;;6158012;23;20532;-92
2023/05/22 05:17:07;;;;;;;4.85;2.65;;;8.70;99.90;;;;;;6167047;23;20005;-92
2023/05/22 05:19:33;;;;;;;5.72;2.20;;;8.70;99.90;;;;;;6162685;23;20028;-94
2023/05/22 05:22:00;;;;;;;4.45;2.35;;;8.80;99.90;;;;;;6163078;23;20030;-94
2023/05/22 05:24:25;;;;;;;9.45;2.95;;;8.80;99.90;;;;;;6161182;23;20149;-93
2023/05/22 05:26:51;;;;;;;5.13;2.55;;;8.80;99.90;;;;;;6155955;23;20009;-93
2023/05/22 05:29:17;;;;;;;8.93;2.80;;;8.90;99.90;;;;;;6157132;23;20041;-94
2023/05/22 05:31:43;;;;;;;4.05;2.58;;;8.90;99.90;;;;;;6155345;23;20014;-93
2023/05/22 05:34:09;;;;;;;5.30;3.05;;;9.00;99.90;;;;;;6155352;23;20010;-94
2023/05/22 05:36:34;;;;;;;7.55;2.90;;;9.00;99.90;;;;;;6154089;23;20002;-94
2023/05/22 05:39:00;;;;;;;6.10;3.25;;;9.00;99.90;;;;;;6154546;23;20096;-94
2023/05/22 05:41:26;;;;;;;8.00;2.53;;;9.10;99.90;;;;;;6154757;23;20013;-94
2023/05/22 05:43:52;;;;;;;6.50;2.63;;;9.10;99.90;;;;;;6155975;23;20069;-94
2023/05/22 05:46:18;;;;;;;5.28;2.72;;;9.10;99.90;;;;;;6153277;23;20058;-95
2023/05/22 05:48:44;;;;;;;7.40;3.15;;;9.20;99.90;;;;;;6153631;23;20006;-93
2023/05/22 05:51:10;;;;;;;6.55;2.80;;;9.20;99.90;;;;;;6153484;23;20002;-93
2023/05/22 05:53:36;;;;;;;5.93;2.92;;;9.30;99.90;;;;;;6153443;23;20017;-94
2023/05/22 05:56:02;;;;;;;6.28;2.50;;;9.30;99.90;;;;;;6153341;23;20472;-94
2023/05/22 05:58:28;;;;;;;4.55;2.40;;;9.40;99.90;;;;;;6129843;23;20030;-94
2023/05/22 06:00:54;;;;;;;4.38;2.13;;;9.50;99.90;;;;;;6153182;23;20017;-93
2023/05/22 06:03:20;;;;;;;4.93;2.38;;;9.60;99.90;;;;;;6153587;23;20133;-93
2023/05/22 06:05:45;;;;;;;3.67;2.47;;;9.70;99.90;;;;;;6153746;23;20042;-95
2023/05/22 06:08:12;;;;;;;4.90;2.45;;;9.70;99.90;;;;;;6154053;23;20025;-95
2023/05/22 06:10:38;;;;;;;5.60;2.50;;;9.90;99.90;;;;;;6155385;23;20013;-95
2023/05/22 06:13:04;;;;;;;6.03;2.30;;;10.00;99.90;;;;;;6155549;23;20018;-95
2023/05/22 06:15:30;;;;;;;3.63;1.98;;;10.00;99.90;;;;;;6157504;23;20021;-94
2023/05/22 06:17:56;;;;;;;6.65;2.30;;;10.20;99.90;;;;;;6158129;23;20081;-94
2023/05/22 06:20:23;;;;;;;5.25;2.42;;;10.20;99.90;;;;;;6155625;23;20017;-94
2023/05/22 06:22:50;;;;;;;3.42;2.30;;;10.40;99.90;;;;;;6155582;23;20029;-94
2023/05/22 06:25:16;;;;;;;4.45;2.13;;;10.40;99.90;;;;;;6153679;23;20013;-94
2023/05/22 06:27:42;;;;;;;4.35;2.17;;;10.60;99.90;;;;;;6152488;23;20014;-94
2023/05/22 06:30:08;;;;;;;4.30;1.90;;;10.70;99.90;;;;;;6152834;23;20491;-95
2023/05/22 06:32:34;;;;;;;4.13;2.50;;;10.80;99.90;;;;;;6130396;23;20009;-94
2023/05/22 06:35:00;;;;;;;4.78;3.03;;;10.90;99.80;;;;;;6154514;23;20002;-95
2023/05/22 06:37:26;;;;;;;6.10;2.20;;;11.00;98.80;;;;;;6159458;23;20062;-94
2023/05/22 06:39:51;;;;;;;6.93;2.30;;;11.20;97.90;;;;;;6157926;23;20030;-94
2023/05/22 06:42:18;;;;;;;3.42;2.22;;;11.30;97.20;;;;;;6132923;23;20033;-95
2023/05/22 06:44:43;;;;;;;4.90;1.98;;;11.40;96.90;;;;;;6156955;23;20009;-95
2023/05/22 06:47:09;;;;;;;5.00;2.10;;;11.50;96.30;;;;;;6159294;23;20013;-93
2023/05/22 06:49:35;;;;;;;2.90;1.70;;;11.60;95.50;;;;;;6170392;23;20009;-94
2023/05/22 06:52:00;;;;;;;4.40;1.90;;;11.70;94.60;;;;;;6137495;23;20041;-95
2023/05/22 06:54:28;;;;;;;16.77;2.03;;;11.80;94.00;;;;;;6160294;23;20002;-95
2023/05/22 06:56:55;;;;;;;5.18;2.10;;;12.00;93.20;;;;;;6160292;23;20038;-94
2023/05/22 06:59:21;;;;;;;3.55;2.10;;;12.10;92.50;;;;;;6136431;23;20033;-95
2023/05/22 07:01:47;;;;;;;4.22;2.10;;;12.20;91.70;;;;;;6159656;23;20002;-94
2023/05/22 07:04:14;;;;;;;4.53;2.03;;;12.30;90.80;;;;;;6153903;23;20006;-92
2023/05/22 07:06:40;;;;;;;5.80;2.15;;;12.50;90.00;;;;;;6156548;23;20069;-93
2023/05/22 07:09:07;;;;;;;4.15;2.50;;;12.70;88.00;;;;;;6159236;23;20029;-95
2023/05/22 07:11:36;;;;;;;3.55;1.63;;;12.80;86.20;;;;;;6147129;23;20018;-94
2023/05/22 07:14:02;;;;;;;6.70;1.80;;;12.90;84.60;;;;;;6169276;23;20010;-93
2023/05/22 07:16:29;;;;;;;3.22;1.67;;;13.10;83.00;;;;;;6165401;23;20006;-95
2023/05/22 07:18:55;;;;;;;3.28;2.00;;;13.20;81.90;;;;;;6166802;23;20010;-95
2023/05/22 07:21:23;;;;;;;4.40;1.70;;;13.30;81.50;;;;;;6162701;23;20013;-94
2023/05/22 07:23:51;;;;;;;4.28;1.58;;;13.50;80.50;;;;;;6166791;23;20062;-94
2023/05/22 07:26:16;;;;;;;3.10;1.58;;;13.60;79.70;;;;;;6163424;23;20278;-95
2023/05/22 07:28:42;;;;;;;1.83;1.40;;;13.70;79.10;;;;;;6169177;23;20025;-95
2023/05/22 07:31:08;;;;;;;3.35;1.30;;;13.90;78.80;;;;;;6162999;23;20021;-95
2023/05/22 07:33:33;;;;;;;3.30;1.20;;;14.00;78.40;;;;;;6162970;23;20010;-95
2023/05/22 07:36:00;;;;;;;2.40;1.30;;;14.10;77.90;;;;;;6142859;23;20026;-95
2023/05/22 07:38:26;;;;;;;1.95;1.10;;;14.20;77.00;;;;;;6163908;23;20036;-93
2023/05/22 07:40:51;;;;;;;3.92;1.40;;;14.30;76.30;;;;;;6166712;23;20025;-93
2023/05/22 07:43:17;;;;;;;1.73;1.17;;;14.40;75.70;;;;;;6152168;23;20014;-92
2023/05/22 07:45:43;;;;;;;3.22;1.13;;;14.60;75.20;;;;;;6171582;23;19998;-93
2023/05/22 07:48:08;;;;;;;3.53;1.17;;;14.70;74.30;;;;;;6175436;23;20074;-92
2023/05/22 07:50:34;;;;;;;1.83;0.95;;;14.80;73.20;;;;;;6175369;23;20025;-95
2023/05/22 07:53:00;;;;;;;1.63;1.10;;;15.00;71.90;;;;;;6172756;23;20254;-95
2023/05/22 07:55:26;;;;;;;2.20;1.25;;;15.10;70.60;;;;;;6170540;23;20008;-95
2023/05/22 07:57:52;;;;;;;2.40;1.20;;;15.20;69.30;;;;;;6167601;23;20120;-93
2023/05/22 08:00:18;;;;;;;1.70;1.33;;;15.40;68.40;;;;;;6165163;23;20049;-92
2023/05/22 08:02:44;;;;;;;4.97;1.90;;;15.60;66.80;;;;;;6167631;23;20090;-96
2023/05/22 08:05:10;;;;;;;5.63;1.23;;;15.60;66.10;;;;;;6169244;23;20002;-95
2023/05/22 08:07:36;;;;;;;4.38;1.50;;;15.80;65.40;;;;;;6168275;23;20017;-94
2023/05/22 08:10:04;;;;;;;1.40;1.10;;;16.00;65.30;;;;;;6169095;23;20030;-94
2023/05/22 08:12:29;;;;;;;2.30;1.15;;;16.10;65.10;;;;;;6165885;23;20033;-95
2023/05/22 08:14:55;;;;;;;2.90;1.30;;;16.20;64.40;;;;;;6173555;23;19994;-94
2023/05/22 08:17:21;;;;;;;4.20;1.48;;;16.30;64.00;;;;;;6172073;23;20450;-94
2023/05/22 08:19:46;;;;;;;4.05;1.50;;;16.40;63.80;;;;;;6167468;23;20053;-95
2023/05/22 08:22:12;;;;;;;3.00;1.27;;;16.50;63.30;;;;;;6166734;23;20057;-95
2023/05/22 08:24:38;;;;;;;2.17;1.40;;;16.50;62.30;;;;;;6141689;23;20009;-94
2023/05/22 08:27:04;;;;;;;2.60;1.20;;;16.60;61.20;;;;;;6160529;23;20065;-94
2023/05/22 08:29:30;;;;;;;3.13;1.58;;;16.70;60.10;;;;;;6166276;23;20014;-94
2023/05/22 08:31:56;;;;;;;2.17;1.40;;;16.90;58.80;;;;;;6162370;23;20061;-95
2023/05/22 08:34:27;;;;;;;3.55;1.30;;;17.10;57.90;;;;;;6161167;23;20018;-94
2023/05/22 08:36:52;;;;;;;3.47;1.40;;;17.20;57.20;;;;;;6163703;23;20026;-94
2023/05/22 08:39:18;;;;;;;3.17;1.35;;;17.40;56.80;;;;;;6158906;23;20009;-95
2023/05/22 08:41:46;;;;;;;3.35;1.45;;;17.50;56.10;;;;;;6171764;23;20142;-94
2023/05/22 08:44:12;;;;;;;5.85;1.40;;;17.70;55.60;;;;;;6168200;23;20048;-94
2023/05/22 08:46:40;;;;;;;3.55;1.40;;;17.80;54.90;;;;;;6171792;23;20017;-95
2023/05/22 08:49:08;;;;;;;3.40;1.45;;;18.00;55.40;;;;;;6173532;23;20006;-95
2023/05/22 08:51:37;;;;;;;2.28;1.33;;;18.00;54.70;;;;;;6172214;23;20037;-95
2023/05/22 08:54:08;;;;;;;3.20;1.63;;;18.10;54.80;;;;;;6172724;23;20009;-94
2023/05/22 08:56:34;;;;;;;;;;;18.20;55.20;;;;;;6148439;23;19998;-95
2023/05/22 08:59:01;;;;;;;3.90;1.55;;;18.20;55.10;;;;;;6145609;23;19901;-94
2023/05/22 09:01:28;;;;;;;3.75;1.55;;;18.20;54.30;;;;;;6171413;23;20006;-93
2023/05/22 09:03:59;;;;;;;2.38;1.60;;;18.20;54.20;;;;;;6170123;23;20001;-93
2023/05/22 09:06:25;;;;;;;2.90;1.58;;;18.30;54.20;;;;;;6170839;23;20006;-94
2023/05/22 09:08:52;;;;;;;3.35;1.75;;;18.30;54.20;;;;;;6170725;23;20037;-93
2023/05/22 09:11:17;;;;;;;3.25;1.83;;;18.40;54.50;;;;;;6169359;23;20006;-95
2023/05/22 09:13:43;;;;;;;2.40;1.73;;;18.50;54.70;;;;;;6172321;23;20014;-91
2023/05/22 09:16:12;;;;;;;3.47;1.70;;;18.50;54.90;;;;;;6172961;23;20002;-92
2023/05/22 09:18:39;;;;;;;2.25;1.77;;;18.60;55.10;;;;;;6165748;23;20449;-93
2023/05/22 09:21:09;;;;;;;4.28;1.70;;;18.50;55.10;;;;;;6163849;23;20016;-95
2023/05/22 09:23:35;;;;;;;;;;;18.60;55.30;;;;;;6167423;23;20018;-95
2023/05/22 09:26:02;;;;;;;2.88;1.70;;;18.60;55.40;;;;;;6168989;23;19967;-95
2023/05/22 09:28:36;;;;;;;3.63;1.70;;;18.60;55.40;;;;;;6167649;23;19998;-94
2023/05/22 09:31:03;;;;;;;2.55;1.80;;;18.60;55.40;;;;;;6145171;23;20041;-95
2023/05/22 09:33:30;;;;;;;4.05;2.15;;;18.60;55.40;;;;;;6168293;23;20430;-94
2023/05/22 09:35:57;;;;;;;3.95;1.92;;;18.60;55.60;;;;;;6170462;23;20002;-95
2023/05/22 09:38:27;;;;;;;3.08;2.00;;;18.50;55.90;;;;;;6174433;23;20005;-93
2023/05/22 09:40:54;;;;;;;3.58;1.92;;;18.60;56.40;;;;;;6146784;23;20065;-94
2023/05/22 09:43:22;;;;;;;5.97;1.90;;;18.60;56.70;;;;;;6176109;23;20005;-92
2023/05/22 09:45:48;;;;;;;5.22;2.10;;;18.60;56.50;;;;;;6175761;23;20043;-94
2023/05/22 09:48:17;;;;;;;4.03;1.90;;;18.60;56.50;;;;;;6174169;23;20009;-95
2023/05/22 09:50:52;;;;;;;4.15;1.80;;;18.70;56.70;;;;;;6173407;23;20010;-95
2023/05/22 09:53:24;;;;;;;5.28;2.10;;;18.80;56.90;;;;;;6174040;23;20018;-96
2023/05/22 09:55:50;;;;;;;4.30;2.33;;;18.90;56.90;;;;;;6172257;23;20053;-96
2023/05/22 09:58:18;;;;;;;4.45;2.17;;;19.00;57.10;;;;;;6175082;23;20028;-94
2023/05/22 10:00:45;;;;;;;4.45;1.75;;;19.10;57.00;;;;;;6176174;23;20097;-93
2023/05/22 10:03:11;;;;;;;4.88;1.98;;;19.40;57.00;;;;;;6175746;23;20026;-93
2023/05/22 10:05:43;;;;;;;4.93;1.80;;;19.60;56.70;;;;;;6175566;23;20002;-94
2023/05/22 10:08:29;;;;;;;5.03;2.15;;;19.90;56.30;;;;;;6151059;23;19998;-93
2023/05/22 10:10:57;;;;;;;4.32;1.55;;;20.10;56.40;;;;;;6150992;23;20006;-94
2023/05/22 10:13:24;;;;;;;4.22;1.90;;;20.30;55.50;;;;;;6174064;23;19998;-92
2023/05/22 10:15:50;;;;;;;4.50;2.20;;;20.50;55.00;;;;;;6175990;23;20006;-92
2023/05/22 10:18:16;;;;;;;4.07;2.33;;;20.70;54.50;;;;;;6176040;23;19998;-94
2023/05/22 10:20:43;;;;;;;5.05;2.20;;;21.00;54.30;;;;;;6175459;23;20011;-94
2023/05/22 10:23:09;;;;;;;4.63;2.33;;;21.20;54.00;;;;;;6177024;23;20009;-91
2023/05/22 10:25:38;;;;;;;8.68;2.35;;;21.40;54.00;;;;;;6177348;23;19998;-91
2023/05/22 10:28:06;;;;;;;4.32;2.42;;;21.70;54.40;;;;;;6152675;23;20213;-91
2023/05/22 10:30:53;;;;;;;3.65;2.35;;;22.00;54.30;;;;;;6177075;23;20045;-92
2023/05/22 10:33:28;;;;;;;8.98;3.10;;;22.20;53.70;;;;;;6152525;23;20040;-91
2023/05/22 10:36:05;;;;;;;3.97;2.17;;;22.50;53.70;;;;;;6177277;23;20009;-90
2023/05/22 10:38:55;;;;;;;6.15;2.67;;;22.70;53.60;;;;;;6176393;23;19998;-93
2023/05/22 10:41:25;;;;;;;3.85;2.47;;;22.90;53.20;;;;;;6152955;23;19994;-90
2023/05/22 10:43:50;;;;;;;5.72;2.80;;;23.10;53.40;;;;;;6177080;23;20260;-91
2023/05/22 10:46:17;;;;;;;4.55;2.72;;;23.20;53.60;;;;;;6153750;23;20042;-92
2023/05/22 10:48:53;;;;;;;5.43;2.42;;;23.30;53.60;;;;;;6177463;23;20006;-89
2023/05/22 10:51:21;;;;;;;5.75;2.42;;;23.40;53.00;;;;;;6177210;23;20034;-89
2023/05/22 10:54:00;;;;;;;4.22;2.53;;;23.50;52.50;;;;;;6177196;23;19990;-90
2023/05/22 10:56:33;;;;;;;7.18;2.65;;;23.60;52.20;;;;;;6176934;23;19994;-92
2023/05/22 10:59:04;;;;;;;5.43;2.50;;;23.80;52.10;;;;;;6177630;23;20002;-88
2023/05/22 11:01:36;;;;;;;8.40;2.03;;;24.00;51.70;;;;;;6177831;23;20005;-88
2023/05/22 11:04:07;;;;;;;4.05;2.35;;;24.30;51.30;;;;;;6177747;23;20084;-90
2023/05/22 11:06:42;;;;;;;5.20;2.53;;;24.40;51.00;;;;;;6153067;23;19998;-90
2023/05/22 11:09:42;;;;;;;7.75;2.60;;;24.50;50.90;;;;;;6153350;23;20006;-92
2023/05/22 11:12:26;;;;;;;5.30;2.47;;;24.50;51.10;;;;;;6177518;23;20026;-88
2023/05/22 11:15:08;;;;;;;5.40;2.63;;;24.50;51.30;;;;;;6177711;23;20009;-90
2023/05/22 11:17:43;;;;;;;4.53;2.35;;;24.70;51.60;;;;;;6177795;23;20002;-89
2023/05/22 11:20:19;;;;;;;6.25;2.35;;;24.80;51.40;;;;;;6177526;23;19998;-89
2023/05/22 11:23:02;;;;;;;4.72;2.20;;;24.90;51.30;;;;;;6177601;23;20018;-90
2023/05/22 11:25:28;;;;;;;3.83;2.20;;;25.10;51.60;;;;;;6177260;23;19998;-92
2023/05/22 11:27:55;;;;;;;4.38;2.78;;;25.30;51.40;;;;;;6177253;23;19998;-90
2023/05/22 11:30:25;;;;;;;3.30;2.25;;;25.30;51.00;;;;;;6177229;23;20037;-92
2023/05/22 11:32:51;;;;;;;;;;;25.30;50.80;;;;;;6153802;23;20006;-93
2023/05/22 11:35:21;;;;;;;4.00;2.40;;;25.30;50.90;;;;;;6177184;23;19990;-90
2023/05/22 11:37:47;;;;;;;5.30;2.55;;;25.40;51.00;;;;;;6175932;23;20120;-93
2023/05/22 11:40:19;;;;;;;3.10;2.17;;;25.50;50.90;;;;;;6174098;23;20010;-92
2023/05/22 11:42:46;;;;;;;3.55;2.55;;;25.60;50.90;;;;;;6176532;23;19991;-95
2023/05/22 11:45:12;;;;;;;5.63;2.50;;;25.70;50.70;;;;;;6176950;23;20009;-91
2023/05/22 11:47:37;;;;;;;6.55;2.55;;;25.70;50.40;;;;;;6175166;23;20010;-92
2023/05/22 11:50:05;;;;;;;4.43;2.00;;;25.80;50.30;;;;;;6175277;23;20010;-92
2023/05/22 11:52:32;;;;;;;6.22;3.05;;;25.90;50.30;;;;;;6173854;23;20010;-93
2023/05/22 11:54:58;;;;;;;4.90;2.97;;;26.00;50.20;;;;;;6177676;23;20001;-92
2023/05/22 11:57:24;;;;;;;6.65;2.88;;;26.00;49.90;;;;;;6178252;23;20002;-90
2023/05/22 11:59:49;;;;;;;6.28;2.70;;;26.10;49.90;;;;;;6179268;23;20005;-89
2023/05/22 12:02:17;;;;;;;6.15;2.65;;;26.10;49.80;;;;;;6179242;23;20020;-93
2023/05/22 12:04:43;;;;;;;8.43;2.85;;;26.20;49.90;;;;;;6179486;23;20038;-89
2023/05/22 12:07:09;;;;;;;6.95;2.85;;;26.30;49.80;;;;;;6155278;23;19994;-93
2023/05/22 12:09:37;;;;;;;6.65;2.75;;;26.40;49.60;;;;;;6179769;23;20002;-94
2023/05/22 12:12:03;;;;;;;4.13;2.97;;;26.50;49.50;;;;;;6178570;23;20014;-88
2023/05/22 12:14:32;;;;;;;6.13;2.80;;;26.50;49.30;;;;;;6179800;23;20094;-91
2023/05/22 12:16:58;;;;;;;6.70;3.30;;;26.50;48.90;;;;;;6179466;23;20037;-87
2023/05/22 12:19:25;;;;;;;5.55;3.20;;;26.40;49.00;;;;;;6179553;23;20017;-89
2023/05/22 12:21:51;;;;;;;5.80;2.95;;;26.50;49.10;;;;;;6179442;23;20008;-89
2023/05/22 12:24:23;;;;;;;5.20;2.90;;;26.50;49.00;;;;;;6179109;23;19998;-88
2023/05/22 12:26:50;;;;;;;9.02;3.58;;;26.60;48.90;;;;;;6179177;23;20064;-87
2023/05/22 12:29:16;;;;;;;5.90;3.55;;;26.80;48.80;;;;;;6178930;23;20030;-88
2023/05/22 12:31:45;;;;;;;7.38;3.42;;;26.90;48.40;;;;;;6178998;23;20030;-91
2023/05/22 12:34:11;;;;;;;5.28;3.60;;;26.90;48.10;;;;;;6155186;23;19998;-92
2023/05/22 12:36:44;;;;;;;5.72;3.38;;;26.80;47.90;;;;;;6178853;23;20002;-89
2023/05/22 12:39:16;;;;;;;7.15;3.03;;;26.80;47.90;;;;;;6178662;23;20017;-89
2023/05/22 12:41:43;;;;;;;5.78;3.50;;;26.80;48.00;;;;;;6179016;23;20375;-89
2023/05/22 12:44:09;;;;;;;4.88;3.00;;;26.90;48.10;;;;;;6178813;23;20070;-88
2023/05/22 12:46:35;;;;;;;6.22;3.20;;;27.00;48.10;;;;;;6178839;23;19995;-90
2023/05/22 12:49:01;;;;;;;4.68;3.13;;;27.10;48.20;;;;;;6155014;23;20005;-88
2023/05/22 12:51:29;;;;;;;7.30;3.45;;;27.20;48.20;;;;;;6178793;23;20057;-89
2023/05/22 12:53:59;;;;;;;5.22;2.88;;;27.30;48.20;;;;;;6178326;23;20033;-88
2023/05/22 12:56:25;;;;;;;6.50;3.30;;;27.40;48.10;;;;;;6178652;23;19998;-88